createdAt,value
2023-04-14T00:00:07.306Z,982.15
2023-04-14T00:01:07.320Z,982.15
2023-04-14T00:02:07.363Z,982.12
2023-04-14T00:03:07.599Z,982.15
2023-04-14T00:04:07.426Z,982.14
2023-04-14T00:05:07.391Z,982.12
2023-04-14T00:06:07.283Z,982.09
2023-04-14T00:07:07.265Z,982.08
2023-04-14T00:08:07.260Z,982.05
2023-04-14T00:09:07.226Z,982.01
2023-04-14T00:10:07.252Z,982.01
2023-04-14T00:11:07.264Z,982.07
2023-04-14T00:12:07.232Z,982.01
2023-04-14T00:13:07.221Z,982.04
2023-04-14T00:14:07.201Z,982.00
2023-04-14T00:15:07.190Z,981.96
2023-04-14T00:16:07.204Z,981.98
2023-04-14T00:17:07.177Z,981.95
2023-04-14T00:18:07.211Z,981.95
2023-04-14T00:19:07.148Z,981.95
2023-04-14T00:20:07.176Z,981.88
2023-04-14T00:21:07.135Z,981.87
2023-04-14T00:22:07.138Z,981.88
2023-04-14T00:23:07.126Z,981.89
2023-04-14T00:24:07.125Z,981.84
2023-04-14T00:25:07.121Z,981.83
2023-04-14T00:26:07.091Z,981.79
2023-04-14T00:27:07.082Z,981.84
2023-04-14T00:28:07.093Z,981.90
2023-04-14T00:29:07.040Z,981.83
2023-04-14T00:30:07.082Z,981.87
2023-04-14T00:31:07.047Z,981.94
2023-04-14T00:32:07.001Z,981.93
2023-04-14T00:33:07.014Z,981.95
2023-04-14T00:34:07.003Z,981.95
2023-04-14T00:35:07.019Z,982.01
2023-04-14T00:36:06.999Z,981.99
2023-04-14T00:37:06.986Z,981.97
2023-04-14T00:38:06.979Z,982.04
2023-04-14T00:39:06.983Z,982.04
2023-04-14T00:40:06.944Z,981.99
2023-04-14T00:41:06.944Z,982.01
2023-04-14T00:42:06.904Z,982.00
2023-04-14T00:43:06.906Z,982.01
2023-04-14T00:44:06.892Z,982.04
2023-04-14T00:45:06.902Z,982.01
2023-04-14T00:46:06.987Z,982.07
2023-04-14T00:47:06.873Z,982.03
2023-04-14T00:48:06.876Z,982.08
2023-04-14T00:49:06.854Z,982.11
2023-04-14T00:50:06.866Z,982.04
2023-04-14T00:51:06.840Z,982.12
2023-04-14T00:52:06.832Z,982.09
2023-04-14T00:53:06.836Z,982.06
2023-04-14T00:54:06.832Z,982.11
2023-04-14T00:55:06.809Z,982.08
2023-04-14T00:56:06.796Z,982.13
2023-04-14T00:57:06.829Z,982.14
2023-04-14T00:58:06.783Z,982.11
2023-04-14T00:59:06.763Z,982.15
2023-04-14T01:00:06.775Z,982.15
2023-04-14T01:01:06.732Z,982.21
2023-04-14T01:02:06.824Z,982.20
2023-04-14T01:03:07.069Z,982.20
2023-04-14T01:04:06.900Z,982.22
2023-04-14T01:05:06.864Z,982.19
2023-04-14T01:06:06.707Z,982.20
2023-04-14T01:07:06.714Z,982.22
2023-04-14T01:08:06.677Z,982.21
2023-04-14T01:09:06.652Z,982.23
2023-04-14T01:10:06.705Z,982.20
2023-04-14T01:11:06.630Z,982.23
2023-04-14T01:12:06.617Z,982.21
2023-04-14T01:13:06.656Z,982.28
2023-04-14T01:14:06.640Z,982.27
2023-04-14T01:15:06.618Z,982.28
2023-04-14T01:16:06.685Z,982.33
2023-04-14T01:17:06.591Z,982.30
2023-04-14T01:18:06.619Z,982.32
2023-04-14T01:19:06.569Z,982.36
2023-04-14T01:20:06.580Z,982.26
2023-04-14T01:21:06.549Z,982.30
2023-04-14T01:22:06.546Z,982.31
2023-04-14T01:23:06.520Z,982.31
2023-04-14T01:24:06.585Z,982.35
2023-04-14T01:25:06.542Z,982.33
2023-04-14T01:26:06.497Z,982.31
2023-04-14T01:27:06.545Z,982.27
2023-04-14T01:28:06.539Z,982.29
2023-04-14T01:29:06.529Z,982.27
2023-04-14T01:30:06.494Z,982.30
2023-04-14T01:31:06.523Z,982.23
2023-04-14T01:32:06.509Z,982.29
2023-04-14T01:33:06.421Z,982.30
2023-04-14T01:34:06.398Z,982.23
2023-04-14T01:35:06.408Z,982.30
2023-04-14T01:36:06.388Z,982.26
2023-04-14T01:37:06.416Z,982.32
2023-04-14T01:38:06.415Z,982.36
2023-04-14T01:39:06.382Z,982.32
2023-04-14T01:40:06.395Z,982.32
2023-04-14T01:41:06.362Z,982.36
2023-04-14T01:42:06.353Z,982.33
2023-04-14T01:43:06.359Z,982.37
2023-04-14T01:44:06.362Z,982.35
2023-04-14T01:45:06.312Z,982.34
2023-04-14T01:46:06.368Z,982.35
2023-04-14T01:47:06.281Z,982.33
2023-04-14T01:48:06.377Z,982.34
2023-04-14T01:49:06.288Z,982.39
2023-04-14T01:50:06.277Z,982.31
2023-04-14T01:51:06.260Z,982.37
2023-04-14T01:52:06.249Z,982.36
2023-04-14T01:53:06.255Z,982.37
2023-04-14T01:54:06.267Z,982.36
2023-04-14T01:55:06.215Z,982.39
2023-04-14T01:56:06.215Z,982.36
2023-04-14T01:57:06.207Z,982.38
2023-04-14T01:58:06.207Z,982.37
2023-04-14T01:59:06.202Z,982.34
2023-04-14T02:00:06.198Z,982.41
2023-04-14T02:01:06.249Z,982.35
2023-04-14T02:02:06.226Z,982.34
2023-04-14T02:03:06.245Z,982.36
2023-04-14T02:04:06.273Z,982.35
2023-04-14T02:05:06.146Z,982.33
2023-04-14T02:06:06.128Z,982.32
2023-04-14T02:07:06.144Z,982.30
2023-04-14T02:08:06.081Z,982.28
2023-04-14T02:09:06.110Z,982.30
2023-04-14T02:10:06.101Z,982.29
2023-04-14T02:11:06.064Z,982.29
2023-04-14T02:12:06.035Z,982.32
2023-04-14T02:13:06.078Z,982.27
2023-04-14T02:14:06.029Z,982.25
2023-04-14T02:15:06.035Z,982.24
2023-04-14T02:16:06.074Z,982.27
2023-04-14T02:17:06.039Z,982.23
2023-04-14T02:18:05.982Z,982.28
2023-04-14T02:19:06.065Z,982.26
2023-04-14T02:20:05.968Z,982.31
2023-04-14T02:21:05.986Z,982.32
2023-04-14T02:22:05.957Z,982.33
2023-04-14T02:23:05.957Z,982.35
2023-04-14T02:24:05.990Z,982.31
2023-04-14T02:25:05.937Z,982.38
2023-04-14T02:26:05.968Z,982.43
2023-04-14T02:27:05.897Z,982.34
2023-04-14T02:28:05.919Z,982.48
2023-04-14T02:29:05.871Z,982.34
2023-04-14T02:30:05.944Z,982.38
2023-04-14T02:31:05.922Z,982.31
2023-04-14T02:32:05.954Z,982.33
2023-04-14T02:33:05.901Z,982.39
2023-04-14T02:34:05.842Z,982.41
2023-04-14T02:35:05.829Z,982.39
2023-04-14T02:36:05.850Z,982.39
2023-04-14T02:37:05.804Z,982.41
2023-04-14T02:38:05.796Z,982.39
2023-04-14T02:39:37.719Z,982.46
2023-04-14T02:40:05.799Z,982.44
2023-04-14T02:41:05.761Z,982.47
2023-04-14T02:42:05.782Z,982.49
2023-04-14T02:43:05.760Z,982.42
2023-04-14T02:44:06.764Z,982.43
2023-04-14T02:45:05.797Z,982.46
2023-04-14T02:46:05.789Z,982.45
2023-04-14T02:47:05.735Z,982.48
2023-04-14T02:48:05.704Z,982.45
2023-04-14T02:49:05.726Z,982.49
2023-04-14T02:50:05.739Z,982.43
2023-04-14T02:51:05.743Z,982.45
2023-04-14T02:52:05.680Z,982.42
2023-04-14T02:53:05.683Z,982.49
2023-04-14T02:54:05.633Z,982.43
2023-04-14T02:55:06.664Z,982.45
2023-04-14T02:56:05.661Z,982.37
2023-04-14T02:57:05.642Z,982.37
2023-04-14T02:58:05.675Z,982.39
2023-04-14T02:59:05.635Z,982.42
2023-04-14T03:00:05.622Z,982.37
2023-04-14T03:01:05.611Z,982.36
2023-04-14T03:02:05.641Z,982.35
2023-04-14T03:03:05.658Z,982.43
2023-04-14T03:04:05.725Z,982.40
2023-04-14T03:05:05.559Z,982.40
2023-04-14T03:06:05.596Z,982.34
2023-04-14T03:07:05.551Z,982.37
2023-04-14T03:08:05.541Z,982.39
2023-04-14T03:09:05.506Z,982.35
2023-04-14T03:10:05.546Z,982.36
2023-04-14T03:11:05.516Z,982.37
2023-04-14T03:12:05.481Z,982.37
2023-04-14T03:13:05.479Z,982.29
2023-04-14T03:14:05.486Z,982.28
2023-04-14T03:15:05.492Z,982.29
2023-04-14T03:16:05.488Z,982.32
2023-04-14T03:17:05.444Z,982.30
2023-04-14T03:18:05.508Z,982.33
2023-04-14T03:19:05.455Z,982.38
2023-04-14T03:20:05.419Z,982.36
2023-04-14T03:21:05.396Z,982.36
2023-04-14T03:22:05.404Z,982.39
2023-04-14T03:23:05.601Z,982.37
2023-04-14T03:24:05.396Z,982.37
2023-04-14T03:25:05.358Z,982.39
2023-04-14T03:26:05.349Z,982.39
2023-04-14T03:27:05.362Z,982.38
2023-04-14T03:28:05.301Z,982.43
2023-04-14T03:29:05.329Z,982.40
2023-04-14T03:30:05.409Z,982.45
2023-04-14T03:31:05.427Z,982.46
2023-04-14T03:32:05.296Z,982.42
2023-04-14T03:33:05.300Z,982.41
2023-04-14T03:34:06.271Z,982.41
2023-04-14T03:35:05.275Z,982.40
2023-04-14T03:36:05.247Z,982.38
2023-04-14T03:37:05.304Z,982.38
2023-04-14T03:38:06.219Z,982.37
2023-04-14T03:39:05.247Z,982.35
2023-04-14T03:40:05.200Z,982.36
2023-04-14T03:41:05.198Z,982.34
2023-04-14T03:42:05.198Z,982.30
2023-04-14T03:43:05.263Z,982.27
2023-04-14T03:44:05.212Z,982.39
2023-04-14T03:45:05.165Z,982.30
2023-04-14T03:46:05.184Z,982.38
2023-04-14T03:47:05.205Z,982.35
2023-04-14T03:48:05.246Z,982.33
2023-04-14T03:49:05.120Z,982.35
2023-04-14T03:50:05.117Z,982.32
2023-04-14T03:51:05.129Z,982.30
2023-04-14T03:52:05.088Z,982.29
2023-04-14T03:53:05.126Z,982.33
2023-04-14T03:54:05.083Z,982.33
2023-04-14T03:55:05.078Z,982.33
2023-04-14T03:56:05.081Z,982.36
2023-04-14T03:57:05.064Z,982.34
2023-04-14T03:58:05.054Z,982.33
2023-04-14T03:59:05.043Z,982.40
2023-04-14T04:00:05.027Z,982.36
2023-04-14T04:01:05.009Z,982.34
2023-04-14T04:02:05.083Z,982.34
2023-04-14T04:03:05.232Z,982.37
2023-04-14T04:04:05.060Z,982.40
2023-04-14T04:05:05.113Z,982.40
2023-04-14T04:06:05.022Z,982.34
2023-04-14T04:07:05.002Z,982.34
2023-04-14T04:08:05.009Z,982.46
2023-04-14T04:09:04.931Z,982.44
2023-04-14T04:10:04.948Z,982.46
2023-04-14T04:11:04.946Z,982.51
2023-04-14T04:12:04.922Z,982.51
2023-04-14T04:13:04.884Z,982.55
2023-04-14T04:14:04.936Z,982.58
2023-04-14T04:15:04.922Z,982.64
2023-04-14T04:16:04.937Z,982.65
2023-04-14T04:17:04.878Z,982.71
2023-04-14T04:18:04.847Z,982.72
2023-04-14T04:19:04.826Z,982.74
2023-04-14T04:20:06.828Z,982.70
2023-04-14T04:21:04.824Z,982.66
2023-04-14T04:22:04.800Z,982.74
2023-04-14T04:23:04.794Z,982.68
2023-04-14T04:24:04.827Z,982.71
2023-04-14T04:25:04.755Z,982.71
2023-04-14T04:26:04.787Z,982.74
2023-04-14T04:27:06.489Z,982.72
2023-04-14T04:28:04.751Z,982.74
2023-04-14T04:29:04.756Z,982.74
2023-04-14T04:30:04.732Z,982.74
2023-04-14T04:31:04.715Z,982.69
2023-04-14T04:32:04.755Z,982.72
2023-04-14T04:33:04.718Z,982.67
2023-04-14T04:34:04.733Z,982.67
2023-04-14T04:35:04.665Z,982.66
2023-04-14T04:36:04.667Z,982.66
2023-04-14T04:37:04.682Z,982.66
2023-04-14T04:38:04.640Z,982.66
2023-04-14T04:39:04.673Z,982.70
2023-04-14T04:40:04.645Z,982.72
2023-04-14T04:41:04.605Z,982.74
2023-04-14T04:42:04.595Z,982.70
2023-04-14T04:43:04.575Z,982.70
2023-04-14T04:44:04.622Z,982.73
2023-04-14T04:45:04.555Z,982.72
2023-04-14T04:46:04.602Z,982.76
2023-04-14T04:47:04.574Z,982.74
2023-04-14T04:48:04.623Z,982.76
2023-04-14T04:49:04.529Z,982.73
2023-04-14T04:50:04.523Z,982.69
2023-04-14T04:51:04.519Z,982.68
2023-04-14T04:52:04.506Z,982.64
2023-04-14T04:53:04.527Z,982.69
2023-04-14T04:54:04.491Z,982.67
2023-04-14T04:55:04.502Z,982.64
2023-04-14T04:56:04.511Z,982.67
2023-04-14T04:57:04.788Z,982.68
2023-04-14T04:58:04.459Z,982.66
2023-04-14T04:59:04.510Z,982.66
2023-04-14T05:00:04.489Z,982.63
2023-04-14T05:01:04.447Z,982.63
2023-04-14T05:02:04.439Z,982.65
2023-04-14T05:03:04.453Z,982.64
2023-04-14T05:04:04.475Z,982.60
2023-04-14T05:05:04.426Z,982.62
2023-04-14T05:06:04.390Z,982.61
2023-04-14T05:07:04.378Z,982.58
2023-04-14T05:08:04.363Z,982.59
2023-04-14T05:09:04.366Z,982.65
2023-04-14T05:10:04.404Z,982.67
2023-04-14T05:11:04.355Z,982.67
2023-04-14T05:12:04.341Z,982.68
2023-04-14T05:13:04.331Z,982.66
2023-04-14T05:14:04.301Z,982.71
2023-04-14T05:15:04.342Z,982.74
2023-04-14T05:16:04.343Z,982.74
2023-04-14T05:17:05.691Z,982.72
2023-04-14T05:18:07.324Z,982.74
2023-04-14T05:19:08.191Z,982.69
2023-04-14T05:20:06.187Z,982.76
2023-04-14T05:21:07.272Z,982.71
2023-04-14T05:22:07.190Z,982.73
2023-04-14T05:23:07.200Z,982.73
2023-04-14T05:24:07.696Z,982.74
2023-04-14T05:25:05.681Z,982.73
2023-04-14T05:26:16.341Z,982.83
2023-04-14T05:27:14.182Z,982.77
2023-04-14T05:28:05.755Z,982.82
2023-04-14T05:29:04.831Z,982.85
2023-04-14T05:30:04.773Z,982.86
2023-04-14T05:31:05.707Z,982.81
2023-04-14T05:32:06.700Z,982.82
2023-04-14T05:33:08.205Z,982.82
2023-04-14T05:34:07.196Z,982.81
2023-04-14T05:35:04.165Z,982.83
2023-04-14T05:36:06.713Z,982.88
2023-04-14T05:37:04.624Z,982.87
2023-04-14T05:38:05.371Z,982.87
2023-04-14T05:39:08.690Z,982.82
2023-04-14T05:40:04.689Z,982.81
2023-04-14T05:41:04.998Z,982.85
2023-04-14T05:42:04.696Z,982.86
2023-04-14T05:43:05.835Z,982.87
2023-04-14T05:44:04.939Z,982.90
2023-04-14T05:45:05.053Z,982.84
2023-04-14T05:46:05.937Z,982.87
2023-04-14T05:47:06.244Z,982.88
2023-04-14T05:48:07.221Z,982.90
2023-04-14T05:49:04.215Z,982.91
2023-04-14T05:50:03.971Z,982.90
2023-04-14T05:51:05.697Z,982.94
2023-04-14T05:52:04.814Z,982.95
2023-04-14T05:53:09.193Z,982.93
2023-04-14T05:54:11.707Z,982.90
2023-04-14T05:55:05.871Z,982.90
2023-04-14T05:56:05.188Z,982.92
2023-04-14T05:57:08.181Z,982.85
2023-04-14T05:58:06.194Z,982.91
2023-04-14T05:59:06.728Z,982.96
2023-04-14T06:00:07.195Z,982.97
2023-04-14T06:01:07.192Z,983.02
2023-04-14T06:02:10.277Z,982.99
2023-04-14T06:03:05.021Z,983.02
2023-04-14T06:04:07.282Z,983.00
2023-04-14T06:05:05.340Z,982.91
2023-04-14T06:06:08.768Z,982.98
2023-04-14T06:07:08.271Z,982.92
2023-04-14T06:08:04.843Z,982.90
2023-04-14T06:09:04.887Z,982.90
2023-04-14T06:10:05.380Z,982.93
2023-04-14T06:11:06.262Z,982.97
2023-04-14T06:12:09.202Z,982.94
2023-04-14T06:13:05.727Z,983.01
2023-04-14T06:14:08.295Z,982.99
2023-04-14T06:15:06.429Z,982.94
2023-04-14T06:16:07.770Z,982.92
2023-04-14T06:17:07.696Z,982.98
2023-04-14T06:18:05.703Z,982.96
2023-04-14T06:19:05.181Z,982.97
2023-04-14T06:20:05.736Z,982.95
2023-04-14T06:21:03.706Z,982.89
2023-04-14T06:22:05.227Z,982.91
2023-04-14T06:23:06.206Z,982.97
2023-04-14T06:24:06.189Z,982.84
2023-04-14T06:25:07.690Z,982.85
2023-04-14T06:26:05.767Z,982.83
2023-04-14T06:27:04.679Z,982.86
2023-04-14T06:28:06.268Z,982.87
2023-04-14T06:29:05.277Z,982.90
2023-04-14T06:30:04.715Z,982.89
2023-04-14T06:31:07.204Z,982.92
2023-04-14T06:32:04.723Z,982.91
2023-04-14T06:33:04.434Z,982.95
2023-04-14T06:34:05.696Z,982.91
2023-04-14T06:35:05.283Z,982.95
2023-04-14T06:36:06.226Z,982.95
2023-04-14T06:37:05.222Z,982.91
2023-04-14T06:38:04.185Z,982.91
2023-04-14T06:39:03.689Z,982.99
2023-04-14T06:40:03.496Z,982.99
2023-04-14T06:41:13.194Z,982.97
2023-04-14T06:42:04.598Z,983.03
2023-04-14T06:43:04.685Z,982.98
2023-04-14T06:44:04.649Z,982.99
2023-04-14T06:45:03.603Z,982.93
2023-04-14T06:46:05.745Z,982.91
2023-04-14T06:47:06.702Z,983.02
2023-04-14T06:48:06.300Z,982.94
2023-04-14T06:49:06.190Z,982.96
2023-04-14T06:50:06.271Z,983.01
2023-04-14T06:51:06.193Z,982.96
2023-04-14T06:52:08.316Z,983.01
2023-04-14T06:53:05.704Z,983.04
2023-04-14T06:54:05.324Z,983.00
2023-04-14T06:55:04.187Z,983.02
2023-04-14T06:56:06.179Z,982.97
2023-04-14T06:57:07.206Z,982.95
2023-04-14T06:58:05.242Z,982.90
2023-04-14T06:59:05.414Z,982.83
2023-04-14T07:00:03.860Z,982.84
2023-04-14T07:01:04.791Z,982.80
2023-04-14T07:02:04.767Z,982.85
2023-04-14T07:03:05.912Z,982.88
2023-04-14T07:04:06.105Z,982.82
2023-04-14T07:05:06.797Z,982.79
2023-04-14T07:06:07.185Z,982.80
2023-04-14T07:07:07.324Z,982.84
2023-04-14T07:08:10.016Z,982.81
2023-04-14T07:09:04.168Z,982.82
2023-04-14T07:10:04.217Z,982.89
2023-04-14T07:11:05.190Z,982.89
2023-04-14T07:12:04.693Z,982.92
2023-04-14T07:13:04.726Z,982.91
2023-04-14T07:14:10.692Z,982.88
2023-04-14T07:15:06.185Z,982.88
2023-04-14T07:16:07.313Z,982.91
2023-04-14T07:17:10.714Z,982.93
2023-04-14T07:18:06.736Z,982.93
2023-04-14T07:19:03.824Z,982.93
2023-04-14T07:20:08.268Z,982.94
2023-04-14T07:21:05.212Z,983.04
2023-04-14T07:22:03.747Z,983.10
2023-04-14T07:23:04.713Z,983.07
2023-04-14T07:24:05.278Z,983.12
2023-04-14T07:25:06.256Z,983.08
2023-04-14T07:26:06.777Z,983.12
2023-04-14T07:27:08.215Z,983.13
2023-04-14T07:28:04.483Z,983.10
2023-04-14T07:29:09.421Z,983.08
2023-04-14T07:30:05.999Z,983.01
2023-04-14T07:31:04.201Z,983.08
2023-04-14T07:32:04.681Z,983.06
2023-04-14T07:33:05.286Z,983.07
2023-04-14T07:34:03.752Z,983.01
2023-04-14T07:35:04.686Z,982.99
2023-04-14T07:36:10.740Z,983.01
2023-04-14T07:37:06.220Z,982.91
2023-04-14T07:38:05.180Z,982.86
2023-04-14T07:39:06.191Z,982.94
2023-04-14T07:40:20.245Z,982.84
2023-04-14T07:41:06.184Z,982.89
2023-04-14T07:42:03.680Z,982.86
2023-04-14T07:43:03.930Z,982.86
2023-04-14T07:44:05.714Z,982.86
2023-04-14T07:45:05.177Z,982.80
2023-04-14T07:46:03.891Z,982.72
2023-04-14T07:47:05.673Z,982.76
2023-04-14T07:48:06.204Z,982.69
2023-04-14T07:49:06.227Z,982.72
2023-04-14T07:50:05.820Z,982.74
2023-04-14T07:51:05.196Z,982.70
2023-04-14T07:52:05.178Z,982.78
2023-04-14T07:53:02.774Z,982.76
2023-04-14T07:54:09.754Z,982.72
2023-04-14T07:55:03.470Z,982.68
2023-04-14T07:56:04.000Z,982.67
2023-04-14T07:57:05.181Z,982.68
2023-04-14T07:58:04.278Z,982.65
2023-04-14T07:59:04.782Z,982.70
2023-04-14T08:00:04.703Z,982.67
2023-04-14T08:01:04.792Z,982.68
2023-04-14T08:02:05.929Z,982.64
2023-04-14T08:03:05.393Z,982.69
2023-04-14T08:04:07.476Z,982.68
2023-04-14T08:05:03.710Z,982.74
2023-04-14T08:06:07.355Z,982.71
2023-04-14T08:07:06.220Z,982.71
2023-04-14T08:08:04.341Z,982.74
2023-04-14T08:09:07.275Z,982.74
2023-04-14T08:10:10.178Z,982.71
2023-04-14T08:11:03.686Z,982.75
2023-04-14T08:12:08.734Z,982.74
2023-04-14T08:13:07.242Z,982.78
2023-04-14T08:14:03.688Z,982.76
2023-04-14T08:15:04.182Z,982.83
2023-04-14T08:16:05.341Z,982.81
2023-04-14T08:17:05.679Z,982.75
2023-04-14T08:18:03.750Z,982.75
2023-04-14T08:19:04.938Z,982.77
2023-04-14T08:20:03.739Z,982.76
2023-04-14T08:21:05.787Z,982.80
2023-04-14T08:22:07.678Z,982.81
2023-04-14T08:23:06.182Z,982.79
2023-04-14T08:24:02.603Z,982.81
2023-04-14T08:25:05.176Z,982.73
2023-04-14T08:26:03.183Z,982.75
2023-04-14T08:27:03.949Z,982.77
2023-04-14T08:28:17.648Z,982.76
2023-04-14T08:29:11.174Z,982.74
2023-04-14T08:30:05.174Z,982.77
2023-04-14T08:31:03.069Z,982.78
2023-04-14T08:32:04.324Z,982.80
2023-04-14T08:33:18.185Z,982.77
2023-04-14T08:34:04.487Z,982.85
2023-04-14T08:35:35.328Z,982.76
2023-04-14T08:36:06.678Z,982.70
2023-04-14T08:37:02.503Z,982.71
2023-04-14T08:38:04.196Z,982.73
2023-04-14T08:39:34.269Z,982.70
2023-04-14T08:40:03.202Z,982.76
2023-04-14T08:41:03.701Z,982.73
2023-04-14T08:42:02.366Z,982.71
2023-04-14T08:43:03.192Z,982.73
2023-04-14T08:44:02.255Z,982.74
2023-04-14T08:45:02.324Z,982.69
2023-04-14T08:46:02.337Z,982.66
2023-04-14T08:47:02.268Z,982.63
2023-04-14T08:48:02.284Z,982.72
2023-04-14T08:49:02.608Z,982.70
2023-04-14T08:50:02.235Z,982.69
2023-04-14T08:51:02.229Z,982.63
2023-04-14T08:52:02.279Z,982.61
2023-04-14T08:53:02.172Z,982.60
2023-04-14T08:54:02.450Z,982.61
2023-04-14T08:55:02.193Z,982.54
2023-04-14T08:56:02.198Z,982.57
2023-04-14T08:57:02.176Z,982.50
2023-04-14T08:58:02.148Z,982.56
2023-04-14T08:59:02.134Z,982.54
2023-04-14T09:00:02.154Z,982.54
2023-04-14T09:01:02.178Z,982.52
2023-04-14T09:02:02.188Z,982.51
2023-04-14T09:03:02.291Z,982.52
2023-04-14T09:04:02.548Z,982.52
2023-04-14T09:05:02.266Z,982.53
2023-04-14T09:06:02.091Z,982.55
2023-04-14T09:07:02.047Z,982.51
2023-04-14T09:08:02.065Z,982.57
2023-04-14T09:09:02.025Z,982.55
2023-04-14T09:10:02.065Z,982.59
2023-04-14T09:11:02.059Z,982.54
2023-04-14T09:12:02.024Z,982.50
2023-04-14T09:13:01.978Z,982.61
2023-04-14T09:14:02.131Z,982.55
2023-04-14T09:15:02.001Z,982.53
2023-04-14T09:16:02.044Z,982.49
2023-04-14T09:17:01.985Z,982.50
2023-04-14T09:18:02.050Z,982.42
2023-04-14T09:19:07.361Z,982.48
2023-04-14T09:20:35.463Z,982.46
2023-04-14T09:21:49.344Z,982.48
2023-04-14T09:22:02.891Z,982.46
2023-04-14T09:23:01.872Z,982.43
2023-04-14T09:24:02.143Z,982.38
2023-04-14T09:25:01.909Z,982.39
2023-04-14T09:26:01.872Z,982.34
2023-04-14T09:27:01.886Z,982.30
2023-04-14T09:28:01.923Z,982.36
2023-04-14T09:29:01.993Z,982.35
2023-04-14T09:30:01.827Z,982.34
2023-04-14T09:31:01.894Z,982.28
2023-04-14T09:32:01.856Z,982.23
2023-04-14T09:33:01.804Z,982.29
2023-04-14T09:34:02.115Z,982.24
2023-04-14T09:35:01.794Z,982.19
2023-04-14T09:36:01.808Z,982.21
2023-04-14T09:37:01.751Z,982.19
2023-04-14T09:38:01.783Z,982.20
2023-04-14T09:39:01.728Z,982.14
2023-04-14T09:40:01.735Z,982.19
2023-04-14T09:41:01.772Z,982.22
2023-04-14T09:42:01.722Z,982.21
2023-04-14T09:43:01.712Z,982.18
2023-04-14T09:44:01.719Z,982.23
2023-04-14T09:45:01.665Z,982.16
2023-04-14T09:46:01.668Z,982.13
2023-04-14T09:47:01.689Z,982.13
2023-04-14T09:48:01.648Z,982.14
2023-04-14T09:49:01.628Z,982.15
2023-04-14T09:50:01.621Z,982.03
2023-04-14T09:51:01.633Z,981.99
2023-04-14T09:52:01.645Z,981.99
2023-04-14T09:53:01.611Z,981.96
2023-04-14T09:54:01.924Z,981.99
2023-04-14T09:55:01.580Z,982.01
2023-04-14T09:56:01.585Z,981.98
2023-04-14T09:57:01.581Z,981.95
2023-04-14T09:58:01.554Z,981.98
2023-04-14T09:59:02.162Z,981.99
2023-04-14T10:00:01.543Z,982.02
2023-04-14T10:01:01.510Z,982.02
2023-04-14T10:02:01.679Z,982.06
2023-04-14T10:03:01.758Z,982.05
2023-04-14T10:04:01.545Z,982.05
2023-04-14T10:05:01.471Z,982.05
2023-04-14T10:06:01.447Z,981.94
2023-04-14T10:07:01.445Z,981.98
2023-04-14T10:08:01.498Z,982.02
2023-04-14T10:09:02.051Z,982.02
2023-04-14T10:10:01.415Z,981.99
2023-04-14T10:11:01.425Z,981.95
2023-04-14T10:12:01.421Z,982.01
2023-04-14T10:13:01.404Z,981.98
2023-04-14T10:14:01.403Z,981.94
2023-04-14T10:15:01.415Z,981.95
2023-04-14T10:16:01.458Z,981.95
2023-04-14T10:17:01.386Z,981.95
2023-04-14T10:18:01.409Z,981.97
2023-04-14T10:19:01.509Z,981.86
2023-04-14T10:20:01.337Z,981.91
2023-04-14T10:21:01.357Z,981.86
2023-04-14T10:22:01.317Z,981.89
2023-04-14T10:23:01.275Z,981.81
2023-04-14T10:24:01.274Z,981.78
2023-04-14T10:25:02.268Z,981.80
2023-04-14T10:26:01.258Z,981.82
2023-04-14T10:27:01.314Z,981.81
2023-04-14T10:28:01.261Z,981.78
2023-04-14T10:29:01.539Z,981.77
2023-04-14T10:30:01.214Z,981.75
2023-04-14T10:31:01.212Z,981.72
2023-04-14T10:32:01.340Z,981.75
2023-04-14T10:33:01.205Z,981.71
2023-04-14T10:34:01.186Z,981.60
2023-04-14T10:35:01.190Z,981.62
2023-04-14T10:36:01.195Z,981.67
2023-04-14T10:37:01.142Z,981.62
2023-04-14T10:38:01.144Z,981.65
2023-04-14T10:39:01.577Z,981.65
2023-04-14T10:40:01.136Z,981.65
2023-04-14T10:41:01.118Z,981.68
2023-04-14T10:42:01.112Z,981.70
2023-04-14T10:43:01.091Z,981.66
2023-04-14T10:44:01.073Z,981.70
2023-04-14T10:45:01.102Z,981.69
2023-04-14T10:46:01.048Z,981.68
2023-04-14T10:47:01.098Z,981.66
2023-04-14T10:48:01.092Z,981.67
2023-04-14T10:49:01.285Z,981.64
2023-04-14T10:50:01.019Z,981.66
2023-04-14T10:51:01.031Z,981.60
2023-04-14T10:52:01.036Z,981.61
2023-04-14T10:53:01.034Z,981.48
2023-04-14T10:54:00.984Z,981.50
2023-04-14T10:55:00.998Z,981.47
2023-04-14T10:56:00.984Z,981.44
2023-04-14T10:57:00.937Z,981.38
2023-04-14T10:58:00.928Z,981.39
2023-04-14T10:59:01.219Z,981.55
2023-04-14T11:00:00.980Z,981.47
2023-04-14T11:01:00.936Z,981.51
2023-04-14T11:02:01.078Z,981.51
2023-04-14T11:03:01.051Z,981.53
2023-04-14T11:04:00.961Z,981.42
2023-04-14T11:05:00.852Z,981.48
2023-04-14T11:06:00.871Z,981.47
2023-04-14T11:07:00.878Z,981.47
2023-04-14T11:08:02.642Z,981.49
2023-04-14T11:09:02.012Z,981.45
2023-04-14T11:10:00.816Z,981.46
2023-04-14T11:11:00.844Z,981.43
2023-04-14T11:12:00.835Z,981.45
2023-04-14T11:13:00.828Z,981.44
2023-04-14T11:14:00.804Z,981.39
2023-04-14T11:15:00.784Z,981.43
2023-04-14T11:16:00.820Z,981.46
2023-04-14T11:17:03.692Z,981.46
2023-04-14T11:18:01.772Z,981.46
2023-04-14T11:19:00.877Z,981.48
2023-04-14T11:20:00.775Z,981.40
2023-04-14T11:21:00.707Z,981.53
2023-04-14T11:22:00.726Z,981.46
2023-04-14T11:23:00.716Z,981.45
2023-04-14T11:24:00.692Z,981.48
2023-04-14T11:25:00.702Z,981.43
2023-04-14T11:26:00.658Z,981.42
2023-04-14T11:27:00.687Z,981.42
2023-04-14T11:28:00.629Z,981.43
2023-04-14T11:29:00.807Z,981.33
2023-04-14T11:30:00.646Z,981.30
2023-04-14T11:31:00.621Z,981.29
2023-04-14T11:32:00.740Z,981.30
2023-04-14T11:33:00.718Z,981.31
2023-04-14T11:34:00.573Z,981.28
2023-04-14T11:35:00.600Z,981.30
2023-04-14T11:36:00.666Z,981.26
2023-04-14T11:37:00.578Z,981.24
2023-04-14T11:38:00.573Z,981.20
2023-04-14T11:39:00.760Z,981.19
2023-04-14T11:40:00.568Z,981.19
2023-04-14T11:41:00.543Z,981.20
2023-04-14T11:42:00.532Z,981.23
2023-04-14T11:43:00.539Z,981.18
2023-04-14T11:44:00.521Z,981.14
2023-04-14T11:45:00.507Z,981.13
2023-04-14T11:46:00.500Z,981.09
2023-04-14T11:47:00.492Z,981.09
2023-04-14T11:48:00.511Z,981.14
2023-04-14T11:49:00.892Z,981.12
2023-04-14T11:50:00.414Z,981.10
2023-04-14T11:51:00.430Z,981.09
2023-04-14T11:52:00.433Z,981.09
2023-04-14T11:53:00.421Z,981.05
2023-04-14T11:54:00.447Z,981.03
2023-04-14T11:55:00.400Z,981.02
2023-04-14T11:56:00.413Z,981.01
2023-04-14T11:57:00.391Z,981.02
2023-04-14T11:58:00.406Z,980.99
2023-04-14T11:59:00.672Z,980.95
2023-04-14T12:00:00.381Z,980.93
2023-04-14T12:01:00.334Z,980.92
2023-04-14T12:02:00.329Z,980.94
2023-04-14T12:03:00.416Z,980.95
2023-04-14T12:04:00.487Z,980.99
2023-04-14T12:05:00.544Z,980.92
2023-04-14T12:06:00.723Z,980.89
2023-04-14T12:07:00.264Z,980.94
2023-04-14T12:08:00.240Z,980.92
2023-04-14T12:09:00.398Z,980.90
2023-04-14T12:10:00.312Z,980.85
2023-04-14T12:11:00.265Z,980.97
2023-04-14T12:12:00.218Z,980.85
2023-04-14T12:13:00.186Z,980.96
2023-04-14T12:14:00.216Z,980.90
2023-04-14T12:15:00.249Z,980.94
2023-04-14T12:16:00.207Z,980.90
2023-04-14T12:17:00.240Z,980.93
2023-04-14T12:18:00.283Z,980.95
2023-04-14T12:19:00.491Z,980.86
2023-04-14T12:20:00.140Z,980.91
2023-04-14T12:21:00.173Z,980.91
2023-04-14T12:22:00.147Z,980.88
2023-04-14T12:23:00.162Z,980.83
2023-04-14T12:24:00.136Z,980.90
2023-04-14T12:25:00.143Z,980.83
2023-04-14T12:26:00.062Z,980.86
2023-04-14T12:27:00.067Z,980.87
2023-04-14T12:28:00.115Z,980.76